METAR Data
IDs: Format: Raw Decoded Include TAF

Data at: 2023 UTC 18 Apr 2021

LGIO 181950Z AUTO VRB02KT //// // ////// 11/05 Q1015 RE//